Main page
METAR-TAF:

METAR-TAF

Airports :

Gran Canaria Airport

Gran Canaria, Spain

latitude: 27-56N, longitude: 015-23W, elevation: 23 m

Current weather observation

The report was made 24 minutes ago, at 23:30 UTC
Wind 13 kt from the North
Temperature 22°C
Humidity 69%
Pressure 1016 hPa
Visibility 10 km or more
no clouds below 1500 m and no cumulonimbus

METAR: GCLP 122330Z 01013KT CAVOK 22/16 Q1016 NOSIG

Time: 00:54 (23:54 UTC)

Forecast

The report was made 3 hours and 54 minutes ago, at 20:00 UTC
Forecast valid from 12 at 21 UTC to 13 at 21 UTC
Wind 12 kt from the North
Visibility: 9000 m
Probability 30% :
Temporary
from 13 at 15 UTC to 13 at 20 UTC
Visibility: 4500 m
haze,

TAF: GCLP 122000Z 1221/1321 01012KT 9000 NSC TX27/1314Z TN20/1306Z PROB30 TEMPO 1315/1320 4500 HZ

Weather observations and forecasts of more than 4000 airports (METAR and TAF reports).

The available stations are represented by yellow and red dots on the map.

Hover mouse over dot to see the name of the station.

Then click to see weather observations and forecasts.

To change the map : click on the green buttons with a black cross to zoom in, on the green button with a dash to zoom out, or on the green arrows for adjacent maps.


METAR-TAF: